sensor_id;sensor_type;location;lat;lon;timestamp;pressure;altitude;pressure_sealevel;temperature;humidity
74975;BME280;68459;50.836;19.138;2023-03-29T00:02:31;99216.28;;;-2.76;53.87
74975;BME280;68459;50.836;19.138;2023-03-29T00:05:37;99226.28;;;-2.80;53.64
74975;BME280;68459;50.836;19.138;2023-03-29T00:08:42;99217.50;;;-2.80;53.66
74975;BME280;68459;50.836;19.138;2023-03-29T00:11:48;99210.81;;;-2.84;53.45
74975;BME280;68459;50.836;19.138;2023-03-29T00:14:52;99210.31;;;-2.90;53.64
74975;BME280;68459;50.836;19.138;2023-03-29T00:17:56;99205.28;;;-2.93;53.43
74975;BME280;68459;50.836;19.138;2023-03-29T00:21:00;99203.88;;;-2.97;53.85
74975;BME280;68459;50.836;19.138;2023-03-29T00:24:05;99200.53;;;-2.99;53.92
74975;BME280;68459;50.836;19.138;2023-03-29T00:27:10;99196.34;;;-3.01;53.83
74975;BME280;68459;50.836;19.138;2023-03-29T00:30:14;99198.25;;;-3.03;53.99
74975;BME280;68459;50.836;19.138;2023-03-29T00:33:19;99199.34;;;-3.06;53.87
74975;BME280;68459;50.836;19.138;2023-03-29T00:36:24;99194.34;;;-3.09;54.11
74975;BME280;68459;50.836;19.138;2023-03-29T00:39:29;99192.66;;;-3.10;54.03
74975;BME280;68459;50.836;19.138;2023-03-29T00:42:34;99203.22;;;-3.10;54.83
74975;BME280;68459;50.836;19.138;2023-03-29T00:45:39;99191.81;;;-3.10;54.48
74975;BME280;68459;50.836;19.138;2023-03-29T00:48:43;99183.19;;;-3.12;54.54
74975;BME280;68459;50.836;19.138;2023-03-29T00:51:47;99193.13;;;-3.16;54.08
74975;BME280;68459;50.836;19.138;2023-03-29T00:54:54;99195.06;;;-3.18;53.98
74975;BME280;68459;50.836;19.138;2023-03-29T00:58:03;99198.66;;;-3.19;54.03
74975;BME280;68459;50.836;19.138;2023-03-29T01:01:17;99180.06;;;-3.17;54.65
74975;BME280;68459;50.836;19.138;2023-03-29T01:04:29;99184.63;;;-3.19;54.70
74975;BME280;68459;50.836;19.138;2023-03-29T01:07:41;99187.41;;;-3.21;54.46
74975;BME280;68459;50.836;19.138;2023-03-29T01:10:58;99179.50;;;-3.21;54.79
74975;BME280;68459;50.836;19.138;2023-03-29T01:14:13;99172.56;;;-3.22;54.94
74975;BME280;68459;50.836;19.138;2023-03-29T01:17:24;99185.84;;;-3.24;54.42
74975;BME280;68459;50.836;19.138;2023-03-29T01:20:45;99184.06;;;-3.23;54.45
74975;BME280;68459;50.836;19.138;2023-03-29T01:27:59;99173.88;;;-3.28;54.26
74975;BME280;68459;50.836;19.138;2023-03-29T01:31:08;99172.59;;;-3.33;54.46
74975;BME280;68459;50.836;19.138;2023-03-29T01:34:20;99172.81;;;-3.36;54.47
74975;BME280;68459;50.836;19.138;2023-03-29T01:37:30;99165.78;;;-3.47;54.59
74975;BME280;68459;50.836;19.138;2023-03-29T01:40:41;99170.22;;;-3.47;54.89
74975;BME280;68459;50.836;19.138;2023-03-29T01:43:49;99160.50;;;-3.47;54.84
74975;BME280;68459;50.836;19.138;2023-03-29T01:47:05;99154.41;;;-3.47;55.20
74975;BME280;68459;50.836;19.138;2023-03-29T01:50:16;99160.63;;;-3.48;54.75
74975;BME280;68459;50.836;19.138;2023-03-29T01:53:28;99149.84;;;-3.56;55.05
74975;BME280;68459;50.836;19.138;2023-03-29T01:56:41;99156.56;;;-3.64;55.11
74975;BME280;68459;50.836;19.138;2023-03-29T01:59:51;99152.50;;;-3.68;55.28
74975;BME280;68459;50.836;19.138;2023-03-29T02:03:00;99158.63;;;-3.78;55.54
74975;BME280;68459;50.836;19.138;2023-03-29T02:06:15;99159.69;;;-3.81;55.32
74975;BME280;68459;50.836;19.138;2023-03-29T02:09:22;99152.88;;;-3.83;55.33
74975;BME280;68459;50.836;19.138;2023-03-29T02:12:26;99159.09;;;-3.84;55.59
74975;BME280;68459;50.836;19.138;2023-03-29T02:15:32;99156.94;;;-3.90;55.73
74975;BME280;68459;50.836;19.138;2023-03-29T02:18:37;99158.97;;;-3.94;55.26
74975;BME280;68459;50.836;19.138;2023-03-29T02:21:46;99163.41;;;-3.95;55.82
74975;BME280;68459;50.836;19.138;2023-03-29T02:24:57;99160.56;;;-4.03;55.97
74975;BME280;68459;50.836;19.138;2023-03-29T02:28:06;99160.78;;;-4.06;55.86
74975;BME280;68459;50.836;19.138;2023-03-29T02:31:15;99161.84;;;-4.08;56.32
74975;BME280;68459;50.836;19.138;2023-03-29T02:34:28;99155.41;;;-4.15;56.07
74975;BME280;68459;50.836;19.138;2023-03-29T02:37:41;99160.91;;;-4.18;56.40
74975;BME280;68459;50.836;19.138;2023-03-29T02:40:50;99159.66;;;-4.25;56.52
74975;BME280;68459;50.836;19.138;2023-03-29T02:43:57;99158.97;;;-4.27;57.12
74975;BME280;68459;50.836;19.138;2023-03-29T02:47:12;99172.00;;;-4.26;57.12
74975;BME280;68459;50.836;19.138;2023-03-29T02:50:22;99165.31;;;-4.30;56.47
74975;BME280;68459;50.836;19.138;2023-03-29T02:53:32;99166.88;;;-4.27;56.61
74975;BME280;68459;50.836;19.138;2023-03-29T02:56:43;99168.78;;;-4.29;57.16
74975;BME280;68459;50.836;19.138;2023-03-29T02:59:48;99167.94;;;-4.30;56.72
74975;BME280;68459;50.836;19.138;2023-03-29T03:02:54;99175.97;;;-4.32;56.66
74975;BME280;68459;50.836;19.138;2023-03-29T03:05:59;99170.69;;;-4.32;56.50
74975;BME280;68459;50.836;19.138;2023-03-29T03:09:05;99177.03;;;-4.34;56.79
74975;BME280;68459;50.836;19.138;2023-03-29T03:12:13;99171.75;;;-4.34;56.87
74975;BME280;68459;50.836;19.138;2023-03-29T03:15:17;99174.63;;;-4.37;57.50
74975;BME280;68459;50.836;19.138;2023-03-29T03:18:23;99167.31;;;-4.45;58.04
74975;BME280;68459;50.836;19.138;2023-03-29T03:21:27;99168.50;;;-4.49;57.33
74975;BME280;68459;50.836;19.138;2023-03-29T03:24:31;99167.66;;;-4.49;57.89
74975;BME280;68459;50.836;19.138;2023-03-29T03:27:35;99173.41;;;-4.55;57.87
74975;BME280;68459;50.836;19.138;2023-03-29T03:30:39;99171.34;;;-4.63;57.91
74975;BME280;68459;50.836;19.138;2023-03-29T03:33:53;99166.53;;;-4.69;57.47
74975;BME280;68459;50.836;19.138;2023-03-29T03:37:09;99166.88;;;-4.74;58.05
74975;BME280;68459;50.836;19.138;2023-03-29T03:40:14;99166.38;;;-4.79;57.70
74975;BME280;68459;50.836;19.138;2023-03-29T03:43:18;99166.63;;;-4.82;58.29
74975;BME280;68459;50.836;19.138;2023-03-29T03:46:25;99171.28;;;-4.85;57.67
74975;BME280;68459;50.836;19.138;2023-03-29T03:49:33;99182.84;;;-4.88;58.47
74975;BME280;68459;50.836;19.138;2023-03-29T03:52:37;99175.78;;;-4.87;58.48
74975;BME280;68459;50.836;19.138;2023-03-29T03:55:45;99175.91;;;-4.89;58.29
74975;BME280;68459;50.836;19.138;2023-03-29T03:58:55;99180.69;;;-4.94;58.23
74975;BME280;68459;50.836;19.138;2023-03-29T04:02:00;99170.38;;;-4.97;58.40
74975;BME280;68459;50.836;19.138;2023-03-29T04:05:06;99172.28;;;-4.99;58.57
74975;BME280;68459;50.836;19.138;2023-03-29T04:08:13;99173.34;;;-5.02;58.67
74975;BME280;68459;50.836;19.138;2023-03-29T04:11:36;99172.63;;;-5.04;59.08
74975;BME280;68459;50.836;19.138;2023-03-29T04:14:40;99164.00;;;-5.06;58.82
74975;BME280;68459;50.836;19.138;2023-03-29T04:17:51;99169.25;;;-5.06;58.73
74975;BME280;68459;50.836;19.138;2023-03-29T04:21:00;99175.34;;;-5.05;59.37
74975;BME280;68459;50.836;19.138;2023-03-29T04:24:07;99164.50;;;-5.00;58.79
74975;BME280;68459;50.836;19.138;2023-03-29T04:27:14;99168.72;;;-4.98;58.75
74975;BME280;68459;50.836;19.138;2023-03-29T04:30:18;99162.72;;;-5.00;58.93
74975;BME280;68459;50.836;19.138;2023-03-29T04:33:48;99163.41;;;-5.09;58.77
74975;BME280;68459;50.836;19.138;2023-03-29T04:36:54;99176.38;;;-5.19;59.00
74975;BME280;68459;50.836;19.138;2023-03-29T04:39:59;99172.53;;;-5.26;59.25
74975;BME280;68459;50.836;19.138;2023-03-29T04:43:10;99173.56;;;-5.28;59.43
74975;BME280;68459;50.836;19.138;2023-03-29T04:46:25;99172.72;;;-5.29;59.23
74975;BME280;68459;50.836;19.138;2023-03-29T04:49:39;99166.75;;;-5.31;59.93
74975;BME280;68459;50.836;19.138;2023-03-29T04:52:52;99180.72;;;-5.30;59.59
74975;BME280;68459;50.836;19.138;2023-03-29T04:55:57;99186.59;;;-5.27;59.76
74975;BME280;68459;50.836;19.138;2023-03-29T04:59:26;99180.09;;;-5.21;59.17
74975;BME280;68459;50.836;19.138;2023-03-29T05:02:30;99187.50;;;-5.15;59.04
74975;BME280;68459;50.836;19.138;2023-03-29T05:05:34;99184.22;;;-5.06;59.59
74975;BME280;68459;50.836;19.138;2023-03-29T05:08:39;99183.44;;;-4.95;59.35
74975;BME280;68459;50.836;19.138;2023-03-29T05:11:51;99176.53;;;-4.85;59.28
74975;BME280;68459;50.836;19.138;2023-03-29T05:14:57;99167.94;;;-4.76;59.35
74975;BME280;68459;50.836;19.138;2023-03-29T05:18:02;99179.59;;;-4.68;59.22
74975;BME280;68459;50.836;19.138;2023-03-29T05:21:06;99183.44;;;-4.60;58.99
74975;BME280;68459;50.836;19.138;2023-03-29T05:24:13;99178.56;;;-4.54;58.92
74975;BME280;68459;50.836;19.138;2023-03-29T05:27:40;99172.81;;;-4.48;58.86
74975;BME280;68459;50.836;19.138;2023-03-29T05:30:57;99172.25;;;-4.40;58.91
74975;BME280;68459;50.836;19.138;2023-03-29T05:34:04;99180.59;;;-4.35;59.20
74975;BME280;68459;50.836;19.138;2023-03-29T05:37:13;99177.41;;;-4.27;58.96
74975;BME280;68459;50.836;19.138;2023-03-29T05:40:27;99178.81;;;-4.23;59.68
74975;BME280;68459;50.836;19.138;2023-03-29T05:43:47;99180.06;;;-4.16;59.38
74975;BME280;68459;50.836;19.138;2023-03-29T05:46:51;99183.16;;;-4.11;58.75
74975;BME280;68459;50.836;19.138;2023-03-29T05:49:55;99182.81;;;-4.07;59.10
74975;BME280;68459;50.836;19.138;2023-03-29T05:52:59;99182.19;;;-3.99;58.85
74975;BME280;68459;50.836;19.138;2023-03-29T05:56:05;99176.22;;;-3.90;59.05
74975;BME280;68459;50.836;19.138;2023-03-29T05:59:11;99176.34;;;-3.80;59.10
74975;BME280;68459;50.836;19.138;2023-03-29T06:02:16;99165.91;;;-3.71;58.91
74975;BME280;68459;50.836;19.138;2023-03-29T06:05:26;99170.94;;;-3.56;58.85
74975;BME280;68459;50.836;19.138;2023-03-29T06:08:34;99170.91;;;-3.45;58.96
74975;BME280;68459;50.836;19.138;2023-03-29T06:12:03;99171.47;;;-3.31;58.78
74975;BME280;68459;50.836;19.138;2023-03-29T06:15:14;99159.81;;;-3.17;58.84
74975;BME280;68459;50.836;19.138;2023-03-29T06:18:21;99166.59;;;-3.03;58.40
74975;BME280;68459;50.836;19.138;2023-03-29T06:21:25;99161.16;;;-2.91;58.70
74975;BME280;68459;50.836;19.138;2023-03-29T06:24:29;99158.47;;;-2.79;57.93
74975;BME280;68459;50.836;19.138;2023-03-29T06:27:40;99169.69;;;-2.66;58.34
74975;BME280;68459;50.836;19.138;2023-03-29T06:30:45;99169.00;;;-2.47;57.78
74975;BME280;68459;50.836;19.138;2023-03-29T06:33:50;99168.84;;;-2.25;57.51
74975;BME280;68459;50.836;19.138;2023-03-29T06:37:20;99175.53;;;-2.00;56.72
74975;BME280;68459;50.836;19.138;2023-03-29T06:40:32;99173.81;;;-1.81;56.27
74975;BME280;68459;50.836;19.138;2023-03-29T06:43:39;99164.16;;;-1.61;56.68
74975;BME280;68459;50.836;19.138;2023-03-29T06:46:49;99168.06;;;-1.46;56.20
74975;BME280;68459;50.836;19.138;2023-03-29T06:49:53;99164.78;;;-1.28;55.33
74975;BME280;68459;50.836;19.138;2023-03-29T06:53:08;99164.81;;;-1.09;54.88
74975;BME280;68459;50.836;19.138;2023-03-29T06:56:13;99162.44;;;-0.93;54.78
74975;BME280;68459;50.836;19.138;2023-03-29T06:59:30;99175.16;;;-0.77;53.93
74975;BME280;68459;50.836;19.138;2023-03-29T07:02:49;99160.13;;;-0.67;53.33
74975;BME280;68459;50.836;19.138;2023-03-29T07:05:59;99165.25;;;-0.65;53.41
74975;BME280;68459;50.836;19.138;2023-03-29T07:09:07;99167.06;;;-0.56;52.95
74975;BME280;68459;50.836;19.138;2023-03-29T07:12:34;99167.34;;;-0.40;52.39
74975;BME280;68459;50.836;19.138;2023-03-29T07:15:42;99168.56;;;-0.34;51.10
74975;BME280;68459;50.836;19.138;2023-03-29T07:18:48;99173.97;;;-0.26;51.10
74975;BME280;68459;50.836;19.138;2023-03-29T07:22:15;99163.66;;;-0.20;51.68
74975;BME280;68459;50.836;19.138;2023-03-29T07:25:26;99169.50;;;-0.07;51.69
74975;BME280;68459;50.836;19.138;2023-03-29T07:28:33;99158.69;;;0.05;51.24
74975;BME280;68459;50.836;19.138;2023-03-29T07:31:40;99146.78;;;0.18;51.05
74975;BME280;68459;50.836;19.138;2023-03-29T07:35:06;99150.34;;;0.37;50.78
74975;BME280;68459;50.836;19.138;2023-03-29T07:38:12;99149.41;;;0.55;50.70
74975;BME280;68459;50.836;19.138;2023-03-29T07:41:22;99147.63;;;0.74;49.58
74975;BME280;68459;50.836;19.138;2023-03-29T07:44:32;99147.34;;;0.94;49.41
74975;BME280;68459;50.836;19.138;2023-03-29T07:47:38;99139.84;;;1.07;48.65
74975;BME280;68459;50.836;19.138;2023-03-29T07:50:42;99148.25;;;1.21;48.21
74975;BME280;68459;50.836;19.138;2023-03-29T07:53:46;99144.56;;;1.31;47.47
74975;BME280;68459;50.836;19.138;2023-03-29T07:57:04;99148.25;;;1.38;48.04
74975;BME280;68459;50.836;19.138;2023-03-29T08:00:16;99143.09;;;1.55;48.32
74975;BME280;68459;50.836;19.138;2023-03-29T08:03:37;99148.84;;;1.68;46.04
74975;BME280;68459;50.836;19.138;2023-03-29T08:06:41;99150.72;;;1.75;47.17
74975;BME280;68459;50.836;19.138;2023-03-29T08:09:45;99151.47;;;1.86;46.36
74975;BME280;68459;50.836;19.138;2023-03-29T08:12:49;99139.34;;;1.91;47.00
74975;BME280;68459;50.836;19.138;2023-03-29T08:16:01;99145.38;;;2.01;46.92
74975;BME280;68459;50.836;19.138;2023-03-29T08:19:13;99149.44;;;2.13;46.54
74975;BME280;68459;50.836;19.138;2023-03-29T08:22:35;99135.25;;;2.31;46.32
74975;BME280;68459;50.836;19.138;2023-03-29T08:25:53;99134.13;;;2.41;46.32
74975;BME280;68459;50.836;19.138;2023-03-29T08:28:57;99133.66;;;2.54;45.74
74975;BME280;68459;50.836;19.138;2023-03-29T08:32:02;99128.72;;;2.59;45.88
74975;BME280;68459;50.836;19.138;2023-03-29T08:35:08;99124.41;;;2.66;45.60
74975;BME280;68459;50.836;19.138;2023-03-29T08:38:31;99128.09;;;2.81;45.33
74975;BME280;68459;50.836;19.138;2023-03-29T08:41:46;99118.78;;;2.85;45.54
74975;BME280;68459;50.836;19.138;2023-03-29T08:45:08;99122.13;;;2.96;45.11
74975;BME280;68459;50.836;19.138;2023-03-29T08:48:25;99125.78;;;2.95;45.15
74975;BME280;68459;50.836;19.138;2023-03-29T08:51:38;99122.81;;;2.98;44.49
74975;BME280;68459;50.836;19.138;2023-03-29T08:54:46;99122.84;;;3.06;45.56
74975;BME280;68459;50.836;19.138;2023-03-29T08:58:01;99123.16;;;3.11;45.71
74975;BME280;68459;50.836;19.138;2023-03-29T09:01:11;99121.34;;;3.19;45.19
74975;BME280;68459;50.836;19.138;2023-03-29T09:04:26;99112.19;;;3.30;45.06
74975;BME280;68459;50.836;19.138;2023-03-29T09:07:45;99112.19;;;3.46;45.14
74975;BME280;68459;50.836;19.138;2023-03-29T09:11:04;99114.16;;;3.61;43.90
74975;BME280;68459;50.836;19.138;2023-03-29T09:18:11;99106.66;;;3.64;42.48
74975;BME280;68459;50.836;19.138;2023-03-29T09:21:27;99098.16;;;3.61;44.66
74975;BME280;68459;50.836;19.138;2023-03-29T09:24:58;99097.69;;;3.57;43.85
74975;BME280;68459;50.836;19.138;2023-03-29T09:28:13;99084.00;;;3.68;44.92
74975;BME280;68459;50.836;19.138;2023-03-29T09:31:29;99088.78;;;3.89;45.10
74975;BME280;68459;50.836;19.138;2023-03-29T09:34:42;99085.41;;;4.11;42.65
74975;BME280;68459;50.836;19.138;2023-03-29T09:37:54;99081.69;;;4.20;43.05
74975;BME280;68459;50.836;19.138;2023-03-29T09:41:17;99078.31;;;4.35;43.47
74975;BME280;68459;50.836;19.138;2023-03-29T09:44:29;99069.59;;;4.41;43.39
74975;BME280;68459;50.836;19.138;2023-03-29T09:47:43;99067.22;;;4.46;43.59
74975;BME280;68459;50.836;19.138;2023-03-29T09:50:52;99069.50;;;4.57;43.01
74975;BME280;68459;50.836;19.138;2023-03-29T09:53:56;99079.13;;;4.66;41.98
74975;BME280;68459;50.836;19.138;2023-03-29T09:57:18;99074.94;;;4.72;41.97
74975;BME280;68459;50.836;19.138;2023-03-29T10:00:22;99070.91;;;4.76;43.05
74975;BME280;68459;50.836;19.138;2023-03-29T10:03:28;99066.69;;;4.81;41.84
74975;BME280;68459;50.836;19.138;2023-03-29T10:06:44;99061.47;;;4.88;41.73
74975;BME280;68459;50.836;19.138;2023-03-29T10:09:54;99056.56;;;4.99;40.87
74975;BME280;68459;50.836;19.138;2023-03-29T10:13:04;99067.47;;;5.13;41.06
74975;BME280;68459;50.836;19.138;2023-03-29T10:16:19;99061.59;;;5.17;42.11
74975;BME280;68459;50.836;19.138;2023-03-29T10:19:27;99056.00;;;5.27;41.52
74975;BME280;68459;50.836;19.138;2023-03-29T10:22:36;99059.06;;;5.38;41.98
74975;BME280;68459;50.836;19.138;2023-03-29T10:25:42;99060.38;;;5.43;40.47
74975;BME280;68459;50.836;19.138;2023-03-29T10:28:50;99059.44;;;5.35;40.24
74975;BME280;68459;50.836;19.138;2023-03-29T10:31:58;99071.97;;;5.35;40.11
74975;BME280;68459;50.836;19.138;2023-03-29T10:35:07;99060.84;;;5.46;39.83
74975;BME280;68459;50.836;19.138;2023-03-29T10:38:14;99042.41;;;5.51;39.73
74975;BME280;68459;50.836;19.138;2023-03-29T10:41:21;99039.75;;;5.66;40.14
74975;BME280;68459;50.836;19.138;2023-03-29T10:44:29;99038.75;;;5.82;38.27
74975;BME280;68459;50.836;19.138;2023-03-29T10:47:36;99037.03;;;5.89;38.69
74975;BME280;68459;50.836;19.138;2023-03-29T10:50:40;99047.03;;;6.10;38.70
74975;BME280;68459;50.836;19.138;2023-03-29T10:53:44;99022.91;;;6.24;38.71
74975;BME280;68459;50.836;19.138;2023-03-29T10:56:52;99036.72;;;6.42;37.92
74975;BME280;68459;50.836;19.138;2023-03-29T11:00:06;99033.03;;;6.43;37.00
74975;BME280;68459;50.836;19.138;2023-03-29T11:03:35;99014.91;;;6.46;37.51
74975;BME280;68459;50.836;19.138;2023-03-29T11:07:02;99024.00;;;6.66;36.64
74975;BME280;68459;50.836;19.138;2023-03-29T11:10:32;99006.72;;;6.68;35.77
74975;BME280;68459;50.836;19.138;2023-03-29T11:13:47;99006.28;;;6.86;36.81
74975;BME280;68459;50.836;19.138;2023-03-29T11:17:13;99011.78;;;6.99;36.15
74975;BME280;68459;50.836;19.138;2023-03-29T11:20:35;99005.06;;;7.10;36.74
74975;BME280;68459;50.836;19.138;2023-03-29T11:23:49;99000.72;;;7.09;35.77
74975;BME280;68459;50.836;19.138;2023-03-29T11:27:14;98996.63;;;7.13;36.59
74975;BME280;68459;50.836;19.138;2023-03-29T11:30:35;98983.13;;;7.28;36.21
74975;BME280;68459;50.836;19.138;2023-03-29T11:33:55;98987.38;;;7.43;36.82
74975;BME280;68459;50.836;19.138;2023-03-29T11:37:16;99000.28;;;7.61;37.05
74975;BME280;68459;50.836;19.138;2023-03-29T11:40:37;98976.75;;;7.57;36.09
74975;BME280;68459;50.836;19.138;2023-03-29T11:43:54;98972.91;;;7.72;37.45
74975;BME280;68459;50.836;19.138;2023-03-29T11:47:08;98955.69;;;7.95;36.50
74975;BME280;68459;50.836;19.138;2023-03-29T11:50:20;98959.94;;;8.30;36.64
74975;BME280;68459;50.836;19.138;2023-03-29T11:53:30;98955.28;;;8.45;36.12
74975;BME280;68459;50.836;19.138;2023-03-29T11:56:44;98962.81;;;8.83;36.15
74975;BME280;68459;50.836;19.138;2023-03-29T11:59:55;98956.63;;;9.09;36.34
74975;BME280;68459;50.836;19.138;2023-03-29T12:03:19;98953.72;;;9.23;34.95
74975;BME280;68459;50.836;19.138;2023-03-29T12:06:40;98941.28;;;9.36;35.58
74975;BME280;68459;50.836;19.138;2023-03-29T12:09:53;98952.41;;;9.72;35.67
74975;BME280;68459;50.836;19.138;2023-03-29T12:13:04;98935.91;;;10.13;34.98
74975;BME280;68459;50.836;19.138;2023-03-29T12:16:16;98935.84;;;10.71;34.39
74975;BME280;68459;50.836;19.138;2023-03-29T12:19:29;98931.88;;;11.48;34.96
74975;BME280;68459;50.836;19.138;2023-03-29T12:22:44;98921.78;;;12.35;33.09
74975;BME280;68459;50.836;19.138;2023-03-29T12:25:56;98909.66;;;13.20;33.04
74975;BME280;68459;50.836;19.138;2023-03-29T12:29:15;98919.25;;;14.21;30.31
74975;BME280;68459;50.836;19.138;2023-03-29T12:32:43;98920.66;;;15.81;29.39
74975;BME280;68459;50.836;19.138;2023-03-29T12:36:56;98901.78;;;18.62;27.94
74975;BME280;68459;50.836;19.138;2023-03-29T12:40:24;98901.56;;;19.70;26.65
74975;BME280;68459;50.836;19.138;2023-03-29T12:44:00;98896.03;;;20.55;26.24
74975;BME280;68459;50.836;19.138;2023-03-29T12:47:31;98888.81;;;21.71;25.80
74975;BME280;68459;50.836;19.138;2023-03-29T12:50:48;98885.38;;;22.93;25.89
74975;BME280;68459;50.836;19.138;2023-03-29T12:54:01;98889.88;;;22.47;22.31
74975;BME280;68459;50.836;19.138;2023-03-29T12:57:20;98880.75;;;22.70;25.14
74975;BME280;68459;50.836;19.138;2023-03-29T13:00:32;98883.38;;;23.64;22.17
74975;BME280;68459;50.836;19.138;2023-03-29T13:03:47;98855.03;;;24.81;24.11
74975;BME280;68459;50.836;19.138;2023-03-29T13:06:56;98870.81;;;26.27;21.66
74975;BME280;68459;50.836;19.138;2023-03-29T13:10:08;98880.69;;;26.11;22.06
74975;BME280;68459;50.836;19.138;2023-03-29T13:13:31;98869.44;;;25.37;22.58
74975;BME280;68459;50.836;19.138;2023-03-29T13:16:39;98865.16;;;25.31;22.98
74975;BME280;68459;50.836;19.138;2023-03-29T13:19:47;98873.72;;;24.84;21.54
74975;BME280;68459;50.836;19.138;2023-03-29T13:23:16;98884.00;;;23.28;21.37
74975;BME280;68459;50.836;19.138;2023-03-29T13:26:45;98865.19;;;21.12;23.64
74975;BME280;68459;50.836;19.138;2023-03-29T13:30:17;98874.22;;;19.14;24.22
74975;BME280;68459;50.836;19.138;2023-03-29T13:33:45;98861.44;;;18.07;22.60
74975;BME280;68459;50.836;19.138;2023-03-29T13:37:08;98854.69;;;17.67;26.40
74975;BME280;68459;50.836;19.138;2023-03-29T13:40:44;98863.31;;;17.96;26.49
74975;BME280;68459;50.836;19.138;2023-03-29T13:43:51;98854.22;;;17.86;26.03
74975;BME280;68459;50.836;19.138;2023-03-29T13:47:08;98853.41;;;17.85;25.99
74975;BME280;68459;50.836;19.138;2023-03-29T13:50:27;98854.47;;;18.57;25.28
74975;BME280;68459;50.836;19.138;2023-03-29T13:53:38;98853.16;;;19.05;24.51
74975;BME280;68459;50.836;19.138;2023-03-29T13:57:03;98849.56;;;19.45;23.09
74975;BME280;68459;50.836;19.138;2023-03-29T14:00:15;98852.88;;;19.06;23.22
74975;BME280;68459;50.836;19.138;2023-03-29T14:03:25;98838.66;;;18.84;23.91
74975;BME280;68459;50.836;19.138;2023-03-29T14:06:34;98842.41;;;18.42;23.96
74975;BME280;68459;50.836;19.138;2023-03-29T14:09:43;98830.47;;;18.79;23.21
74975;BME280;68459;50.836;19.138;2023-03-29T14:12:51;98833.97;;;19.35;24.29
74975;BME280;68459;50.836;19.138;2023-03-29T14:15:59;98830.94;;;19.62;22.99
74975;BME280;68459;50.836;19.138;2023-03-29T14:19:13;98832.53;;;19.73;23.20
74975;BME280;68459;50.836;19.138;2023-03-29T14:22:20;98830.63;;;20.38;22.99
74975;BME280;68459;50.836;19.138;2023-03-29T14:25:24;98829.28;;;21.09;22.56
74975;BME280;68459;50.836;19.138;2023-03-29T14:28:32;98822.22;;;21.03;22.40
74975;BME280;68459;50.836;19.138;2023-03-29T14:31:37;98815.00;;;20.39;22.66
74975;BME280;68459;50.836;19.138;2023-03-29T14:34:46;98811.63;;;20.57;23.03
74975;BME280;68459;50.836;19.138;2023-03-29T14:37:52;98812.81;;;20.41;22.82
74975;BME280;68459;50.836;19.138;2023-03-29T14:40:58;98807.31;;;19.86;23.06
74975;BME280;68459;50.836;19.138;2023-03-29T14:44:04;98808.59;;;19.04;24.06
74975;BME280;68459;50.836;19.138;2023-03-29T14:47:14;98799.50;;;18.23;24.62
74975;BME280;68459;50.836;19.138;2023-03-29T14:50:26;98795.25;;;17.69;25.01
74975;BME280;68459;50.836;19.138;2023-03-29T14:53:33;98799.78;;;17.12;25.59
74975;BME280;68459;50.836;19.138;2023-03-29T14:56:40;98788.28;;;16.40;26.52
74975;BME280;68459;50.836;19.138;2023-03-29T14:59:50;98790.31;;;16.23;26.54
74975;BME280;68459;50.836;19.138;2023-03-29T15:02:58;98788.66;;;15.74;26.80
74975;BME280;68459;50.836;19.138;2023-03-29T15:06:06;98787.84;;;14.96;27.27
74975;BME280;68459;50.836;19.138;2023-03-29T15:09:13;98789.31;;;14.08;28.09
74975;BME280;68459;50.836;19.138;2023-03-29T15:12:21;98781.94;;;13.64;29.40
74975;BME280;68459;50.836;19.138;2023-03-29T15:15:25;98782.34;;;13.32;28.99
74975;BME280;68459;50.836;19.138;2023-03-29T15:18:32;98780.22;;;13.11;29.46
74975;BME280;68459;50.836;19.138;2023-03-29T15:21:42;98779.03;;;13.07;29.40
74975;BME280;68459;50.836;19.138;2023-03-29T15:24:49;98772.00;;;13.29;29.59
74975;BME280;68459;50.836;19.138;2023-03-29T15:27:55;98770.09;;;13.41;29.14
74975;BME280;68459;50.836;19.138;2023-03-29T15:31:08;98780.78;;;14.45;29.24
74975;BME280;68459;50.836;19.138;2023-03-29T15:34:24;98771.75;;;17.63;26.16
74975;BME280;68459;50.836;19.138;2023-03-29T15:37:30;98762.19;;;19.74;24.72
74975;BME280;68459;50.836;19.138;2023-03-29T15:40:34;98764.03;;;21.34;23.71
74975;BME280;68459;50.836;19.138;2023-03-29T15:43:38;98770.00;;;22.64;22.71
74975;BME280;68459;50.836;19.138;2023-03-29T15:46:42;98763.78;;;23.24;22.04
74975;BME280;68459;50.836;19.138;2023-03-29T15:49:46;98765.63;;;23.15;21.50
74975;BME280;68459;50.836;19.138;2023-03-29T15:52:52;98765.59;;;22.31;22.53
74975;BME280;68459;50.836;19.138;2023-03-29T15:56:15;98756.09;;;21.33;23.24
74975;BME280;68459;50.836;19.138;2023-03-29T15:59:21;98745.88;;;20.08;24.35
74975;BME280;68459;50.836;19.138;2023-03-29T16:02:25;98750.69;;;18.77;25.68
74975;BME280;68459;50.836;19.138;2023-03-29T16:05:30;98750.41;;;17.55;26.59
74975;BME280;68459;50.836;19.138;2023-03-29T16:08:35;98740.88;;;16.36;27.10
74975;BME280;68459;50.836;19.138;2023-03-29T16:11:40;98742.25;;;15.85;27.55
74975;BME280;68459;50.836;19.138;2023-03-29T16:14:45;98739.00;;;15.83;27.83
74975;BME280;68459;50.836;19.138;2023-03-29T16:17:49;98745.66;;;15.71;27.69
74975;BME280;68459;50.836;19.138;2023-03-29T16:20:53;98744.19;;;15.41;28.03
74975;BME280;68459;50.836;19.138;2023-03-29T16:23:59;98738.97;;;14.79;28.15
74975;BME280;68459;50.836;19.138;2023-03-29T16:27:03;98736.13;;;14.07;28.75
74975;BME280;68459;50.836;19.138;2023-03-29T16:30:09;98723.75;;;13.03;29.57
74975;BME280;68459;50.836;19.138;2023-03-29T16:33:13;98725.81;;;12.07;31.00
74975;BME280;68459;50.836;19.138;2023-03-29T16:36:17;98724.69;;;11.19;31.93
74975;BME280;68459;50.836;19.138;2023-03-29T16:39:22;98728.16;;;10.46;32.89
74975;BME280;68459;50.836;19.138;2023-03-29T16:42:26;98731.66;;;9.90;33.32
74975;BME280;68459;50.836;19.138;2023-03-29T16:45:30;98731.69;;;9.46;33.45
74975;BME280;68459;50.836;19.138;2023-03-29T16:48:34;98730.59;;;9.15;34.33
74975;BME280;68459;50.836;19.138;2023-03-29T16:51:38;98723.22;;;8.91;34.25